Time;durP1;ratioP1;P1;durP2;ratioP2;P2;SDS_P1;SDS_P2;PMS_P1;PMS_P2;Temp;Humidity;BMP_temperature;BMP_pressure;BME280_temperature;BME280_humidity;BME280_pressure;Samples;Min_cycle;Max_cycle;Signal;HPM_P1;HPM_P2
2022/06/14 00:03:10;;;;;;;1.65;1.55;;;16.90;99.90;;;;;;5072346;28;20243;-93
2022/06/14 00:05:43;;;;;;;3.13;2.10;;;16.90;99.90;;;;;;5073222;28;20205;-92
2022/06/14 00:08:11;;;;;;;1.90;1.67;;;16.90;99.90;;;;;;5072384;28;20200;-93
2022/06/14 00:10:41;;;;;;;2.15;1.75;;;16.80;99.90;;;;;;5072393;28;20204;-93
2022/06/14 00:13:12;;;;;;;2.22;1.85;;;16.90;99.90;;;;;;5079248;28;20204;-92
2022/06/14 00:15:41;;;;;;;1.92;1.83;;;16.80;99.90;;;;;;5072558;28;20224;-92
2022/06/14 00:18:10;;;;;;;2.53;1.70;;;16.80;99.90;;;;;;5072205;28;20217;-93
2022/06/14 00:20:38;;;;;;;2.20;1.80;;;16.80;99.90;;;;;;5072099;28;20292;-92
2022/06/14 00:23:07;;;;;;;3.72;1.90;;;16.80;99.90;;;;;;5072278;28;20229;-93
2022/06/14 00:25:37;;;;;;;4.32;1.98;;;16.80;99.90;;;;;;5072778;28;20196;-93
2022/06/14 00:28:07;;;;;;;1.70;1.60;;;16.80;99.90;;;;;;5072618;28;20205;-93
2022/06/14 00:30:38;;;;;;;1.55;1.45;;;16.80;99.90;;;;;;5072228;28;20201;-93
2022/06/14 00:33:06;;;;;;;1.75;1.60;;;16.80;99.90;;;;;;5072592;28;20236;-93
2022/06/14 00:35:35;;;;;;;1.70;1.60;;;16.80;99.90;;;;;;5072030;28;20292;-94
2022/06/14 00:38:04;;;;;;;2.13;1.98;;;16.90;99.90;;;;;;5072055;28;20213;-93
2022/06/14 00:40:35;;;;;;;2.78;1.80;;;16.80;99.90;;;;;;5071739;28;20244;-93
2022/06/14 00:43:12;;;;;;;2.75;1.98;;;16.80;99.90;;;;;;5071756;28;20221;-93
2022/06/14 00:46:15;;;;;;;2.47;1.80;;;16.80;99.90;;;;;;5072118;28;20228;-93
2022/06/14 00:48:50;;;;;;;2.63;1.80;;;16.80;99.90;;;;;;5072275;28;20231;-93
2022/06/14 00:51:23;;;;;;;1.80;1.70;;;16.70;99.90;;;;;;5072002;28;20275;-93
2022/06/14 00:53:57;;;;;;;16.02;2.30;;;16.80;99.90;;;;;;5075045;28;20228;-92
2022/06/14 00:56:32;;;;;;;1.73;1.63;;;16.70;99.90;;;;;;5075895;28;20240;-93
2022/06/14 00:59:04;;;;;;;2.25;1.98;;;16.70;99.90;;;;;;5075648;28;20323;-93
2022/06/14 01:01:37;;;;;;;2.22;1.75;;;16.60;99.90;;;;;;5075578;28;20197;-93
2022/06/14 01:04:10;;;;;;;5.15;2.10;;;16.60;99.90;;;;;;5075861;28;20205;-94
2022/06/14 01:06:49;;;;;;;1.98;1.70;;;16.60;99.90;;;;;;5075589;28;20236;-93
2022/06/14 01:09:22;;;;;;;3.35;2.13;;;16.60;99.90;;;;;;5075611;28;20240;-93
2022/06/14 01:11:54;;;;;;;1.63;1.52;;;16.60;99.90;;;;;;5075275;28;20225;-93
2022/06/14 01:14:31;;;;;;;5.20;1.90;;;16.50;99.90;;;;;;5075587;28;20209;-93
2022/06/14 01:17:01;;;;;;;2.42;2.22;;;16.50;99.90;;;;;;5076909;28;20208;-93
2022/06/14 01:19:29;;;;;;;2.88;2.30;;;16.50;99.90;;;;;;5077691;28;20217;-93
2022/06/14 01:22:33;;;;;;;3.92;2.53;;;16.40;99.90;;;;;;5075910;28;20209;-93
2022/06/14 01:25:03;;;;;;;2.30;2.10;;;16.40;99.90;;;;;;5014104;28;20211;-94
2022/06/14 01:27:33;;;;;;;1.77;1.67;;;16.40;99.90;;;;;;5013764;28;20332;-93
2022/06/14 01:30:13;;;;;;;2.97;2.00;;;16.40;99.90;;;;;;5044340;28;20302;-93
2022/06/14 01:32:48;;;;;;;1.90;1.73;;;16.30;99.90;;;;;;5075106;28;20213;-93
2022/06/14 01:35:21;;;;;;;2.30;1.83;;;16.30;99.90;;;;;;5075063;28;20209;-93
2022/06/14 01:37:53;;;;;;;1.90;1.67;;;16.20;99.90;;;;;;5074805;28;20216;-93
2022/06/14 01:40:31;;;;;;;3.15;2.20;;;16.20;99.90;;;;;;5075148;28;20201;-93
2022/06/14 01:43:16;;;;;;;3.17;2.33;;;16.10;99.90;;;;;;5074892;28;20236;-93
2022/06/14 01:45:53;;;;;;;1.90;1.80;;;16.10;99.90;;;;;;5074966;28;20232;-94
2022/06/14 01:48:30;;;;;;;1.98;1.88;;;16.10;99.90;;;;;;5074881;28;20233;-94
2022/06/14 01:54:03;;;;;;;2.28;2.05;;;16.00;99.90;;;;;;5074873;28;20264;-93
2022/06/14 01:56:45;;;;;;;3.15;1.80;;;16.00;99.90;;;;;;5074751;28;20232;-93
2022/06/14 01:59:21;;;;;;;2.95;1.90;;;16.00;99.90;;;;;;5074433;28;20225;-93
2022/06/14 02:02:00;;;;;;;2.05;1.92;;;15.90;99.90;;;;;;5074635;28;20296;-92
2022/06/14 02:04:39;;;;;;;2.00;1.77;;;15.90;99.90;;;;;;5073193;28;20236;-93
2022/06/14 02:07:19;;;;;;;2.42;1.85;;;15.90;99.90;;;;;;5074782;28;20220;-92
2022/06/14 02:09:57;;;;;;;9.30;1.80;;;15.90;99.90;;;;;;5074518;28;20229;-93
2022/06/14 02:12:33;;;;;;;1.98;1.77;;;15.80;99.90;;;;;;5073957;28;20205;-93
2022/06/14 02:15:05;;;;;;;3.60;2.28;;;15.80;99.90;;;;;;5074132;28;20201;-92
2022/06/14 02:17:38;;;;;;;2.53;2.20;;;15.80;99.90;;;;;;5074258;28;20209;-92
2022/06/14 02:20:11;;;;;;;1.83;1.73;;;15.80;99.90;;;;;;5074448;28;20225;-93
2022/06/14 02:22:43;;;;;;;1.75;1.63;;;15.80;99.90;;;;;;5074261;28;20205;-93
2022/06/14 02:25:15;;;;;;;1.48;1.38;;;15.70;99.90;;;;;;5074015;28;20205;-93
2022/06/14 02:27:50;;;;;;;6.05;2.15;;;15.70;99.90;;;;;;5074285;28;20227;-93
2022/06/14 02:30:22;;;;;;;2.42;1.50;;;15.70;99.90;;;;;;5073777;28;20228;-93
2022/06/14 02:32:58;;;;;;;1.85;1.70;;;15.70;99.90;;;;;;5074339;28;20282;-93
2022/06/14 02:35:29;;;;;;;3.00;2.03;;;15.70;99.90;;;;;;5073709;28;20204;-93
2022/06/14 02:38:09;;;;;;;2.45;1.83;;;15.70;99.90;;;;;;5073961;28;20437;-93
2022/06/14 02:40:45;;;;;;;1.98;1.40;;;15.70;99.90;;;;;;5073877;28;20299;-93
2022/06/14 02:43:19;;;;;;;1.73;1.63;;;15.60;99.90;;;;;;5072934;28;20255;-92
2022/06/14 02:45:52;;;;;;;1.55;1.45;;;15.60;99.90;;;;;;5073790;28;20231;-93
2022/06/14 02:48:25;;;;;;;2.13;1.85;;;15.60;99.90;;;;;;5073459;28;20237;-92
2022/06/14 02:51:00;;;;;;;1.80;1.70;;;15.60;99.90;;;;;;5073235;28;20205;-92
2022/06/14 02:53:32;;;;;;;2.22;1.83;;;15.60;99.90;;;;;;5073422;28;20303;-92
2022/06/14 02:56:14;;;;;;;2.72;2.33;;;15.50;99.90;;;;;;5073515;28;20204;-93
2022/06/14 02:58:49;;;;;;;2.40;2.17;;;15.50;99.90;;;;;;5073432;28;20263;-93
2022/06/14 03:01:23;;;;;;;2.45;1.63;;;15.50;99.90;;;;;;5073100;28;20251;-93
2022/06/14 03:03:55;;;;;;;6.32;2.15;;;15.50;99.90;;;;;;5073454;28;20291;-95
2022/06/14 03:06:31;;;;;;;2.17;1.95;;;15.50;99.90;;;;;;5073411;28;20204;-95
2022/06/14 03:09:05;;;;;;;1.95;1.85;;;15.50;99.90;;;;;;5073346;28;20297;-95
2022/06/14 03:11:48;;;;;;;2.28;2.05;;;15.50;99.90;;;;;;5072949;28;20224;-96
2022/06/14 03:14:28;;;;;;;1.90;1.80;;;15.50;99.90;;;;;;5073244;28;20216;-96
2022/06/14 03:17:06;;;;;;;3.33;1.95;;;15.40;99.90;;;;;;5072653;28;20253;-95
2022/06/14 03:19:43;;;;;;;3.83;1.73;;;15.40;99.90;;;;;;5072892;28;20316;-94
2022/06/14 03:22:19;;;;;;;2.10;1.90;;;15.40;99.90;;;;;;5072675;28;20234;-95
2022/06/14 03:24:55;;;;;;;2.50;2.20;;;15.40;99.90;;;;;;5072930;28;20250;-95
2022/06/14 03:27:31;;;;;;;2.20;1.98;;;15.40;99.90;;;;;;5072753;28;20273;-95
2022/06/14 03:30:05;;;;;;;3.42;2.33;;;15.30;99.90;;;;;;5072959;28;20251;-95
2022/06/14 03:32:38;;;;;;;2.58;2.10;;;15.30;99.90;;;;;;5073008;28;20265;-95
2022/06/14 03:35:10;;;;;;;4.95;2.10;;;15.30;99.90;;;;;;5073132;28;20233;-96
2022/06/14 03:37:39;;;;;;;2.08;1.80;;;15.20;99.90;;;;;;5073026;28;20263;-95
2022/06/14 03:40:12;;;;;;;3.83;2.53;;;15.20;99.90;;;;;;5072692;28;20289;-95
2022/06/14 03:42:42;;;;;;;2.30;2.10;;;15.20;99.90;;;;;;5072593;28;20235;-95
2022/06/14 03:45:17;;;;;;;6.03;2.20;;;15.20;99.90;;;;;;5072680;28;20243;-96
2022/06/14 03:47:45;;;;;;;1.75;1.65;;;15.20;99.90;;;;;;5072281;28;20287;-96
2022/06/14 03:50:19;;;;;;;2.80;2.20;;;15.20;99.90;;;;;;5072177;28;20241;-96
2022/06/14 03:52:58;;;;;;;3.97;2.22;;;15.20;99.90;;;;;;5072880;28;20247;-95
2022/06/14 03:55:44;;;;;;;2.03;1.75;;;15.20;99.90;;;;;;5072642;28;20205;-96
2022/06/14 03:58:33;;;;;;;7.78;2.58;;;15.20;99.90;;;;;;5072794;28;20251;-93
2022/06/14 04:01:08;;;;;;;2.55;2.35;;;15.20;99.90;;;;;;5075182;28;20193;-93
2022/06/14 04:03:49;;;;;;;2.17;1.95;;;15.20;99.90;;;;;;5074289;28;20250;-93
2022/06/14 04:06:33;;;;;;;2.45;2.25;;;15.30;99.90;;;;;;5073090;28;20270;-93
2022/06/14 04:09:10;;;;;;;4.55;2.22;;;15.30;99.90;;;;;;5072849;28;20389;-93
2022/06/14 04:11:47;;;;;;;2.70;2.35;;;15.30;99.90;;;;;;5072546;28;20212;-93
2022/06/14 04:14:28;;;;;;;3.00;2.13;;;15.30;99.90;;;;;;5072349;28;20205;-93
2022/06/14 04:17:09;;;;;;;3.17;2.28;;;15.30;99.90;;;;;;5072546;28;20204;-93
2022/06/14 04:19:52;;;;;;;3.20;2.15;;;15.40;99.90;;;;;;5072794;28;20248;-93
2022/06/14 04:22:36;;;;;;;4.43;2.22;;;15.40;99.90;;;;;;5078949;28;20244;-93
2022/06/14 04:25:10;;;;;;;3.20;2.25;;;15.40;99.90;;;;;;5072958;28;20229;-93
2022/06/14 04:27:43;;;;;;;2.83;2.25;;;15.40;99.90;;;;;;5074928;28;20273;-92
2022/06/14 04:30:18;;;;;;;4.72;2.45;;;15.50;99.90;;;;;;5076888;28;20307;-93
2022/06/14 04:32:53;;;;;;;2.15;1.65;;;15.50;99.90;;;;;;5076530;28;20255;-92
2022/06/14 04:35:29;;;;;;;2.17;1.98;;;15.50;99.90;;;;;;5076195;28;20200;-94
2022/06/14 04:38:05;;;;;;;3.08;2.13;;;15.50;99.90;;;;;;5076046;28;20238;-93
2022/06/14 04:40:40;;;;;;;2.20;2.00;;;15.50;99.90;;;;;;5075528;28;20248;-93
2022/06/14 04:43:12;;;;;;;2.55;2.33;;;15.60;99.90;;;;;;5075450;28;20205;-92
2022/06/14 04:45:47;;;;;;;2.25;2.05;;;15.60;99.90;;;;;;5075912;28;20319;-94
2022/06/14 04:48:21;;;;;;;3.53;2.53;;;15.60;99.90;;;;;;5076110;28;20243;-93
2022/06/14 04:50:54;;;;;;;3.88;2.35;;;15.70;99.90;;;;;;5075654;28;20197;-94
2022/06/14 04:53:27;;;;;;;1.95;1.80;;;15.80;99.90;;;;;;5075784;28;20296;-93
2022/06/14 04:55:59;;;;;;;2.75;2.20;;;15.80;99.90;;;;;;5076059;28;20205;-93
2022/06/14 04:58:36;;;;;;;3.25;2.20;;;15.80;99.90;;;;;;5075459;28;20228;-93
2022/06/14 05:01:13;;;;;;;4.80;2.03;;;15.90;99.90;;;;;;5075790;28;20221;-94
2022/06/14 05:03:45;;;;;;;3.15;2.30;;;15.90;99.90;;;;;;5075393;28;20209;-93
2022/06/14 05:06:18;;;;;;;4.25;2.28;;;15.90;99.90;;;;;;5075454;28;20212;-93
2022/06/14 05:08:51;;;;;;;3.40;2.35;;;15.90;99.90;;;;;;5075343;28;20228;-93
2022/06/14 05:11:24;;;;;;;2.83;2.35;;;16.00;99.90;;;;;;5075066;28;20193;-93
2022/06/14 05:14:03;;;;;;;2.28;2.08;;;16.00;99.90;;;;;;5075727;28;20205;-93
2022/06/14 05:16:37;;;;;;;4.78;2.60;;;16.10;99.90;;;;;;5075932;28;20220;-93
2022/06/14 05:19:11;;;;;;;3.10;2.25;;;16.10;99.90;;;;;;5075212;28;20231;-93
2022/06/14 05:21:46;;;;;;;2.85;2.63;;;16.10;99.90;;;;;;5075510;28;20205;-93
2022/06/14 05:24:15;;;;;;;1.98;1.63;;;16.10;99.90;;;;;;5074984;28;20222;-93
2022/06/14 05:27:03;;;;;;;2.70;2.28;;;16.20;99.90;;;;;;5075438;28;20201;-93
2022/06/14 05:29:39;;;;;;;2.03;1.80;;;16.20;99.90;;;;;;5074912;28;20229;-93
2022/06/14 05:32:16;;;;;;;11.93;2.40;;;16.30;99.90;;;;;;5075399;28;20213;-93
2022/06/14 05:34:59;;;;;;;3.22;2.13;;;16.30;99.90;;;;;;5075200;28;20212;-94
2022/06/14 05:37:35;;;;;;;2.10;1.92;;;16.30;99.90;;;;;;5075334;28;20209;-93
2022/06/14 05:40:14;;;;;;;3.28;2.47;;;16.40;99.90;;;;;;5074605;28;20233;-93
2022/06/14 05:42:45;;;;;;;1.98;1.77;;;16.40;99.90;;;;;;5074993;28;20271;-93
2022/06/14 05:45:18;;;;;;;1.83;1.73;;;16.40;99.90;;;;;;5075079;28;20270;-94
2022/06/14 05:48:04;;;;;;;3.88;2.20;;;16.40;99.90;;;;;;5074780;28;20197;-94
2022/06/14 05:50:37;;;;;;;4.15;2.40;;;16.50;99.90;;;;;;5074425;28;20288;-93
2022/06/14 05:53:11;;;;;;;15.35;2.63;;;16.50;99.90;;;;;;5075005;28;20285;-93
2022/06/14 05:55:46;;;;;;;3.10;2.15;;;16.60;99.90;;;;;;5075079;28;20212;-93
2022/06/14 05:58:20;;;;;;;3.58;2.15;;;16.70;99.90;;;;;;5074762;28;20262;-92
2022/06/14 06:00:52;;;;;;;2.67;2.30;;;16.80;99.90;;;;;;5072902;28;20216;-91
2022/06/14 06:03:27;;;;;;;2.35;2.15;;;16.80;99.90;;;;;;5074227;28;20197;-86
2022/06/14 06:06:01;;;;;;;2.58;2.10;;;16.90;99.90;;;;;;5072085;28;20209;-86
2022/06/14 06:08:34;;;;;;;2.03;1.90;;;17.00;99.90;;;;;;5071191;28;20217;-77
2022/06/14 06:11:07;;;;;;;2.45;2.25;;;17.10;99.90;;;;;;5080817;28;20275;-84
2022/06/14 06:13:40;;;;;;;2.80;2.30;;;17.20;99.90;;;;;;5094456;28;20222;-84
2022/06/14 06:16:13;;;;;;;3.53;2.10;;;17.30;99.90;;;;;;5094372;28;20291;-83
2022/06/14 06:18:47;;;;;;;2.80;2.45;;;17.40;99.90;;;;;;5074857;28;20217;-82
2022/06/14 06:21:29;;;;;;;2.75;2.03;;;17.50;99.90;;;;;;5063293;28;20221;-82
2022/06/14 06:24:05;;;;;;;1.83;1.73;;;17.60;99.90;;;;;;5067837;28;20222;-82
2022/06/14 06:26:37;;;;;;;3.88;2.00;;;17.70;99.90;;;;;;5064486;28;20217;-82
2022/06/14 06:29:15;;;;;;;2.72;2.15;;;17.80;99.90;;;;;;5062399;28;20232;-79
2022/06/14 06:31:47;;;;;;;2.60;2.15;;;17.90;99.90;;;;;;5069226;28;20243;-82
2022/06/14 06:34:18;;;;;;;2.10;1.63;;;17.90;99.90;;;;;;5067865;28;20202;-87
2022/06/14 06:36:57;;;;;;;2.33;2.10;;;17.80;99.90;;;;;;5066592;28;20201;-87
2022/06/14 06:39:34;;;;;;;2.38;2.00;;;18.00;99.90;;;;;;5071268;28;20227;-87
2022/06/14 06:42:09;;;;;;;2.42;2.20;;;18.10;99.90;;;;;;5072911;28;20250;-87
2022/06/14 06:44:47;;;;;;;2.92;2.40;;;18.20;99.90;;;;;;5073624;28;20287;-87
2022/06/14 06:47:21;;;;;;;3.40;2.38;;;18.30;99.90;;;;;;5073166;28;20201;-87
2022/06/14 06:50:11;;;;;;;4.45;2.58;;;18.40;99.90;;;;;;5065021;28;20233;-87
2022/06/14 06:52:46;;;;;;;3.13;2.35;;;18.40;99.90;;;;;;5056549;28;20235;-87
2022/06/14 06:55:25;;;;;;;5.40;2.08;;;18.50;99.90;;;;;;5072550;28;20291;-87
2022/06/14 06:57:55;;;;;;;14.48;2.55;;;18.70;99.90;;;;;;5073074;28;20243;-87
2022/06/14 07:00:25;;;;;;;4.30;2.55;;;18.90;99.90;;;;;;5072665;28;20273;-87
2022/06/14 07:02:58;;;;;;;2.97;2.22;;;19.20;99.90;;;;;;5073269;28;20286;-87
2022/06/14 07:05:27;;;;;;;2.58;2.28;;;19.50;99.90;;;;;;5072848;28;20199;-87
2022/06/14 07:08:00;;;;;;;3.38;2.90;;;19.80;99.90;;;;;;5072851;28;20475;-86
2022/06/14 07:10:37;;;;;;;3.08;2.40;;;20.20;99.90;;;;;;5072010;28;20297;-87
2022/06/14 07:13:15;;;;;;;1.92;1.80;;;20.40;99.90;;;;;;5073235;28;20209;-87
2022/06/14 07:15:48;;;;;;;2.08;1.88;;;20.60;99.90;;;;;;5072855;28;20205;-86
2022/06/14 07:18:21;;;;;;;3.70;2.10;;;20.80;99.90;;;;;;5072773;28;20313;-87
2022/06/14 07:20:59;;;;;;;3.10;2.13;;;21.00;99.90;;;;;;5072211;28;20216;-87
2022/06/14 07:23:37;;;;;;;2.10;2.00;;;21.00;99.90;;;;;;5071734;28;20197;-87
2022/06/14 07:26:18;;;;;;;2.25;1.90;;;21.00;99.90;;;;;;5072162;28;20193;-87
2022/06/14 07:28:59;;;;;;;1.90;1.80;;;21.30;99.90;;;;;;5073043;28;20312;-86
2022/06/14 07:31:35;;;;;;;2.70;2.33;;;22.00;99.90;;;;;;5072728;28;20205;-87
2022/06/14 07:34:13;;;;;;;2.42;1.85;;;22.70;99.70;;;;;;5072327;28;20307;-82
2022/06/14 07:44:34;;;;;;;2.33;2.13;;;26.10;92.20;;;;;;5072193;28;20237;-81
2022/06/14 07:48:13;;;;;;;2.00;1.90;;;26.50;90.50;;;;;;5038469;28;20212;-81
2022/06/14 07:51:57;;;;;;;2.88;2.00;;;27.30;85.50;;;;;;5052415;28;20259;-81
2022/06/14 07:55:03;;;;;;;1.52;1.42;;;27.90;80.70;;;;;;5052217;28;20201;-81
2022/06/14 07:58:26;;;;;;;2.20;2.00;;;28.40;79.30;;;;;;5052531;28;20201;-81
2022/06/14 08:01:46;;;;;;;2.63;1.90;;;29.40;76.80;;;;;;5052243;28;20233;-85
2022/06/14 08:04:23;;;;;;;1.70;1.55;;;30.10;74.30;;;;;;5033970;28;20230;-85
2022/06/14 08:06:57;;;;;;;2.40;1.95;;;30.30;68.30;;;;;;5054284;28;20213;-84
2022/06/14 08:09:31;;;;;;;2.85;1.95;;;30.20;68.00;;;;;;5054169;28;20224;-85
2022/06/14 08:12:02;;;;;;;2.50;1.98;;;28.90;67.80;;;;;;5053726;28;20192;-85
2022/06/14 08:14:37;;;;;;;7.38;2.15;;;28.10;69.10;;;;;;5054192;28;20217;-85
2022/06/14 08:17:11;;;;;;;3.75;1.92;;;27.80;71.10;;;;;;5050885;28;20201;-85
2022/06/14 08:19:45;;;;;;;3.22;1.88;;;28.30;72.20;;;;;;5053059;28;20210;-84
2022/06/14 08:22:19;;;;;;;2.60;2.10;;;28.80;71.00;;;;;;5051597;28;20245;-85
2022/06/14 08:24:55;;;;;;;4.32;1.73;;;29.20;68.50;;;;;;5051523;28;20189;-85
2022/06/14 08:27:38;;;;;;;1.65;1.55;;;29.70;68.60;;;;;;5052126;28;20212;-85
2022/06/14 08:30:16;;;;;;;2.85;2.33;;;29.90;70.30;;;;;;5052011;28;20218;-84
2022/06/14 08:32:58;;;;;;;2.15;1.40;;;30.40;68.10;;;;;;5052450;28;20268;-85
2022/06/14 08:35:49;;;;;;;3.15;2.15;;;30.20;68.90;;;;;;5052069;28;20209;-86
2022/06/14 08:38:23;;;;;;;1.83;1.70;;;29.10;66.50;;;;;;5032613;28;20218;-85
2022/06/14 08:44:17;;;;;;;10.52;2.05;;;29.50;67.70;;;;;;5031687;28;20199;-85
2022/06/14 08:47:01;;;;;;;2.67;2.10;;;30.40;68.30;;;;;;5032955;28;20213;-85
2022/06/14 08:49:45;;;;;;;2.20;1.90;;;31.00;70.50;;;;;;5051574;28;20221;-86
2022/06/14 08:52:59;;;;;;;1.80;1.58;;;32.00;62.50;;;;;;5051476;28;20229;-84
2022/06/14 08:55:59;;;;;;;2.08;1.88;;;32.40;62.10;;;;;;5052062;28;20229;-84
2022/06/14 08:58:56;;;;;;;1.60;1.50;;;32.50;65.60;;;;;;5051478;28;20267;-84
2022/06/14 09:01:45;;;;;;;1.88;1.70;;;32.80;63.60;;;;;;5051772;28;20308;-85
2022/06/14 09:04:53;;;;;;;3.33;2.55;;;33.60;59.00;;;;;;5051857;28;20197;-85
2022/06/14 09:08:01;;;;;;;1.33;1.20;;;33.50;58.40;;;;;;5051298;28;20273;-85
2022/06/14 09:10:47;;;;;;;2.50;1.80;;;33.50;59.90;;;;;;5031010;28;20339;-85
2022/06/14 09:13:45;;;;;;;2.70;1.90;;;33.50;60.50;;;;;;5043286;28;20204;-86
2022/06/14 09:16:42;;;;;;;2.67;1.83;;;33.70;63.20;;;;;;5054896;28;20203;-86
2022/06/14 09:19:53;;;;;;;7.13;1.70;;;33.70;59.50;;;;;;5055494;28;20229;-85
2022/06/14 09:22:48;;;;;;;2.33;2.03;;;33.80;57.20;;;;;;5055072;28;20229;-85
2022/06/14 09:25:59;;;;;;;2.28;2.08;;;34.00;55.00;;;;;;5054893;28;20193;-86
2022/06/14 09:29:18;;;;;;;3.33;2.03;;;33.60;55.50;;;;;;5053311;28;20290;-86
2022/06/14 09:32:03;;;;;;;2.78;1.95;;;33.50;62.80;;;;;;5054554;28;20201;-86
2022/06/14 09:35:00;;;;;;;2.10;1.90;;;33.60;58.40;;;;;;5055855;28;20224;-86
2022/06/14 09:38:15;;;;;;;1.83;1.70;;;33.40;55.70;;;;;;5054051;28;20209;-85
2022/06/14 09:41:05;;;;;;;3.83;2.22;;;31.50;55.10;;;;;;4968110;28;20235;-81
2022/06/14 09:44:02;;;;;;;2.83;2.00;;;30.10;59.30;;;;;;4973726;28;20312;-80
2022/06/14 09:46:53;;;;;;;1.60;1.50;;;29.80;61.40;;;;;;5036165;28;20202;-78
2022/06/14 09:49:58;;;;;;;2.08;1.90;;;30.10;63.90;;;;;;5033763;28;20226;-78
2022/06/14 09:52:54;;;;;;;1.80;1.70;;;30.20;60.90;;;;;;5047397;28;20284;-81
2022/06/14 09:55:53;;;;;;;2.38;1.80;;;30.70;64.30;;;;;;5054755;28;20289;-80
2022/06/14 09:58:58;;;;;;;2.80;1.98;;;31.50;64.10;;;;;;5053894;28;20305;-78
2022/06/14 10:01:31;;;;;;;2.13;1.80;;;31.80;58.50;;;;;;5054460;28;20236;-79
2022/06/14 10:04:26;;;;;;;2.47;2.28;;;30.50;60.00;;;;;;5054508;28;20198;-78
2022/06/14 10:07:16;;;;;;;4.43;2.10;;;29.80;61.00;;;;;;5054561;28;20217;-80
2022/06/14 10:10:16;;;;;;;2.47;2.15;;;29.70;58.60;;;;;;5053419;28;20296;-79
2022/06/14 10:13:33;;;;;;;4.45;2.05;;;29.90;58.60;;;;;;5054350;28;20205;-79
2022/06/14 10:16:13;;;;;;;2.20;1.90;;;30.30;60.00;;;;;;5034126;28;20241;-79
2022/06/14 10:18:57;;;;;;;3.00;2.00;;;30.10;58.90;;;;;;5049759;28;20225;-79
2022/06/14 10:21:29;;;;;;;3.47;2.13;;;30.40;57.70;;;;;;5037341;28;20297;-78
2022/06/14 10:24:07;;;;;;;2.40;2.20;;;30.10;59.40;;;;;;5053718;28;20308;-80
2022/06/14 10:29:50;;;;;;;2.92;2.35;;;29.30;59.00;;;;;;5053939;28;20281;-78
2022/06/14 10:32:59;;;;;;;3.25;2.25;;;28.30;58.20;;;;;;5053762;28;20237;-78
2022/06/14 10:35:35;;;;;;;2.15;1.92;;;27.40;57.60;;;;;;5053452;28;20225;-78
2022/06/14 10:38:45;;;;;;;2.30;2.10;;;27.10;61.20;;;;;;5053640;28;20205;-78
2022/06/14 10:41:21;;;;;;;3.40;2.15;;;27.20;62.80;;;;;;5053565;28;20305;-78
2022/06/14 10:43:57;;;;;;;2.45;2.10;;;27.30;63.40;;;;;;5053298;28;20229;-78
2022/06/14 10:46:30;;;;;;;1.67;1.58;;;27.70;63.70;;;;;;5054062;28;20233;-78
2022/06/14 10:49:28;;;;;;;2.40;2.20;;;28.00;65.10;;;;;;5048381;28;20209;-78
2022/06/14 10:52:26;;;;;;;4.13;2.42;;;28.50;62.50;;;;;;5033438;28;20292;-78
2022/06/14 10:55:03;;;;;;;2.38;2.20;;;28.50;58.10;;;;;;5041052;28;20208;-89
2022/06/14 10:57:50;;;;;;;2.42;2.20;;;28.20;58.40;;;;;;5055397;28;20206;-90
2022/06/14 11:00:51;;;;;;;2.33;2.13;;;28.00;58.70;;;;;;5052725;28;20333;-88
2022/06/14 11:03:42;;;;;;;9.05;2.35;;;27.50;58.30;;;;;;5053552;28;20250;-93
2022/06/14 11:06:41;;;;;;;3.15;2.50;;;27.40;59.60;;;;;;5054965;28;20209;-94
2022/06/14 11:09:28;;;;;;;1.95;1.85;;;27.10;59.60;;;;;;4991686;28;20247;-93
2022/06/14 11:16:11;;;;;;;3.42;1.88;;;26.00;61.50;;;;;;4970141;28;20212;-95
2022/06/14 11:22:36;;;;;;;7.20;2.10;;;26.00;63.90;;;;;;5020171;28;20212;-95
2022/06/14 11:25:17;;;;;;;1.98;1.88;;;27.00;63.10;;;;;;5052876;28;20224;-95
2022/06/14 11:28:06;;;;;;;2.67;2.28;;;27.50;61.10;;;;;;5047819;28;20197;-94
2022/06/14 11:33:57;;;;;;;2.38;2.17;;;28.50;64.20;;;;;;5047004;28;20206;-95
2022/06/14 11:45:43;;;;;;;2.15;1.95;;;29.90;57.20;;;;;;5005699;28;20214;-93
2022/06/14 12:12:42;;;;;;;2.35;1.83;;;30.30;57.70;;;;;;5027812;28;20207;-93
2022/06/14 12:19:30;;;;;;;2.38;1.65;;;30.80;58.80;;;;;;4966463;28;20235;-90
2022/06/14 12:22:36;;;;;;;1.85;1.52;;;30.30;59.30;;;;;;4967621;28;20200;-91
2022/06/14 12:29:10;;;;;;;1.90;1.80;;;29.90;59.80;;;;;;4995359;28;20260;-91
2022/06/14 12:31:47;;;;;;;3.65;2.15;;;29.50;60.60;;;;;;5028305;28;20203;-90
2022/06/14 12:34:23;;;;;;;1.77;1.67;;;29.10;61.80;;;;;;5015510;28;20222;-90
2022/06/14 12:37:07;;;;;;;2.65;2.15;;;28.90;61.50;;;;;;5032012;28;20202;-89
2022/06/14 12:39:39;;;;;;;5.07;2.13;;;28.90;59.60;;;;;;5031591;28;20250;-89
2022/06/14 12:42:13;;;;;;;2.42;2.00;;;28.60;60.70;;;;;;5031902;28;20230;-89
2022/06/14 12:44:53;;;;;;;2.38;2.10;;;28.60;62.40;;;;;;5015043;28;20254;-89
2022/06/14 12:47:26;;;;;;;2.42;2.00;;;28.30;59.60;;;;;;5023588;28;20276;-89
2022/06/14 12:50:01;;;;;;;4.28;1.92;;;28.30;63.10;;;;;;5028065;28;20241;-89
2022/06/14 12:52:35;;;;;;;2.40;2.20;;;28.20;63.60;;;;;;5035744;28;20210;-89
2022/06/14 12:55:12;;;;;;;2.20;2.00;;;28.20;61.40;;;;;;5024884;28;20231;-89
2022/06/14 12:57:55;;;;;;;2.05;1.92;;;27.90;60.20;;;;;;5022595;28;20217;-89
2022/06/14 13:00:33;;;;;;;1.83;1.73;;;27.80;60.80;;;;;;5022130;28;20207;-89
2022/06/14 13:03:11;;;;;;;2.38;1.83;;;27.80;61.00;;;;;;5015323;28;20218;-89
2022/06/14 13:05:44;;;;;;;2.35;2.13;;;27.80;64.60;;;;;;5030767;28;20198;-89
2022/06/14 13:08:21;;;;;;;1.98;1.77;;;28.00;60.40;;;;;;5036773;28;20202;-88
2022/06/14 13:10:59;;;;;;;2.25;2.05;;;27.60;62.30;;;;;;5019350;28;20218;-88
2022/06/14 13:14:02;;;;;;;3.00;2.10;;;27.10;60.80;;;;;;5015386;28;20233;-88
2022/06/14 13:16:46;;;;;;;1.75;1.58;;;26.90;63.20;;;;;;5034397;28;20268;-88
2022/06/14 13:19:23;;;;;;;2.58;1.88;;;27.00;62.70;;;;;;5035003;28;20230;-88
2022/06/14 13:22:17;;;;;;;8.93;1.77;;;27.00;62.50;;;;;;5035291;28;20285;-88
2022/06/14 13:25:03;;;;;;;2.30;2.10;;;26.90;61.80;;;;;;5018258;28;20227;-88
2022/06/14 13:27:42;;;;;;;1.88;1.77;;;27.20;65.50;;;;;;5015240;28;20223;-88
2022/06/14 13:30:19;;;;;;;2.35;2.15;;;27.40;63.00;;;;;;5015340;28;20296;-88
2022/06/14 13:33:05;;;;;;;2.47;2.28;;;27.60;63.80;;;;;;5015968;28;20203;-88
2022/06/14 13:35:52;;;;;;;2.55;2.35;;;27.60;62.90;;;;;;5015463;28;20241;-88
2022/06/14 13:38:31;;;;;;;3.63;3.03;;;27.70;62.20;;;;;;5019432;28;20217;-89
2022/06/14 13:41:09;;;;;;;2.80;2.45;;;27.60;63.10;;;;;;5019843;28;20298;-88
2022/06/14 13:43:46;;;;;;;2.38;2.00;;;27.80;62.70;;;;;;5016041;28;20238;-88
2022/06/14 13:46:23;;;;;;;2.70;2.25;;;27.70;61.10;;;;;;5014893;28;20207;-88
2022/06/14 13:49:09;;;;;;;2.35;2.08;;;27.60;63.00;;;;;;5025732;28;20225;-88
2022/06/14 13:51:43;;;;;;;4.75;2.30;;;27.40;63.00;;;;;;5034690;28;20222;-88
2022/06/14 13:54:17;;;;;;;6.43;2.22;;;27.20;61.10;;;;;;5022120;28;20246;-88
2022/06/14 13:56:51;;;;;;;3.05;2.13;;;27.10;62.30;;;;;;5034390;28;20206;-89
2022/06/14 13:59:22;;;;;;;2.47;2.17;;;26.90;61.20;;;;;;5017330;28;20249;-88
2022/06/14 14:02:00;;;;;;;2.15;2.00;;;26.70;61.70;;;;;;5018199;28;20206;-88
2022/06/14 14:04:40;;;;;;;4.00;2.10;;;26.50;61.40;;;;;;5017876;28;20218;-88
2022/06/14 14:07:17;;;;;;;2.85;2.00;;;26.60;61.30;;;;;;5020694;28;20236;-88
2022/06/14 14:10:14;;;;;;;2.15;1.95;;;26.40;62.10;;;;;;5033998;28;20284;-88
2022/06/14 14:12:47;;;;;;;2.45;2.25;;;26.40;61.20;;;;;;5032536;28;20225;-88
2022/06/14 14:15:25;;;;;;;3.50;2.28;;;26.50;62.40;;;;;;5019047;28;20206;-88
2022/06/14 14:18:00;;;;;;;2.33;2.13;;;26.70;63.60;;;;;;5026420;28;20203;-88
2022/06/14 14:20:49;;;;;;;5.70;2.70;;;26.70;62.20;;;;;;5014003;28;20210;-88
2022/06/14 14:23:27;;;;;;;2.00;1.90;;;26.50;62.30;;;;;;5023676;28;20261;-88
2022/06/14 14:26:00;;;;;;;3.50;2.22;;;26.40;62.20;;;;;;5033222;28;20229;-88
2022/06/14 14:28:35;;;;;;;1.95;1.80;;;26.40;62.20;;;;;;5033611;28;20253;-88
2022/06/14 14:31:14;;;;;;;2.47;1.75;;;26.40;64.10;;;;;;5034204;28;20248;-88
2022/06/14 14:33:49;;;;;;;4.57;4.18;;;26.50;64.20;;;;;;5014007;28;20198;-88
2022/06/14 14:36:40;;;;;;;2.17;1.90;;;26.50;63.60;;;;;;5028616;28;20208;-88
2022/06/14 14:39:13;;;;;;;1.98;1.83;;;26.40;62.30;;;;;;5034006;28;20230;-90
2022/06/14 14:41:46;;;;;;;2.10;2.00;;;26.40;66.20;;;;;;5031778;28;20229;-89
2022/06/14 14:44:21;;;;;;;3.10;2.30;;;26.30;64.30;;;;;;5020483;28;20242;-89
2022/06/14 14:46:55;;;;;;;2.60;2.15;;;26.30;65.20;;;;;;5025487;28;20222;-89
2022/06/14 14:49:30;;;;;;;2.38;2.17;;;26.20;62.10;;;;;;5015609;28;20223;-89
2022/06/14 14:52:12;;;;;;;5.78;5.28;;;26.00;63.20;;;;;;5033351;28;20205;-88
2022/06/14 14:54:50;;;;;;;2.53;2.08;;;25.90;62.90;;;;;;5033632;28;20211;-89
2022/06/14 14:57:30;;;;;;;2.55;2.35;;;25.80;63.60;;;;;;5027002;28;20214;-91
2022/06/14 15:00:02;;;;;;;2.50;2.03;;;25.50;63.10;;;;;;5016755;28;20234;-90
2022/06/14 15:05:40;;;;;;;2.30;2.03;;;25.70;66.20;;;;;;5016896;28;20215;-90